createdAt,value
2022-12-15T00:02:05.229Z,100838.22
2022-12-15T00:04:49.999Z,100835.66
2022-12-15T00:07:34.980Z,100832.19
2022-12-15T00:10:19.995Z,100831.38
2022-12-15T00:13:04.897Z,100832.25
2022-12-15T00:15:49.862Z,100834.84
2022-12-15T00:18:34.647Z,100836.63
2022-12-15T00:21:19.765Z,100834.03
2022-12-15T00:24:04.628Z,100835.78
2022-12-15T00:26:49.737Z,100840.09
2022-12-15T00:29:34.463Z,100846.97
2022-12-15T00:32:19.743Z,100849.59
2022-12-15T00:35:04.688Z,100840.13
2022-12-15T00:37:49.659Z,100845.31
2022-12-15T00:40:16.127Z,100847.06
2022-12-15T00:42:42.484Z,100842.72
2022-12-15T00:45:09.277Z,100851.38
2022-12-15T00:47:36.460Z,100849.69
2022-12-15T00:50:22.030Z,100853.19
2022-12-15T00:53:07.331Z,100856.59
2022-12-15T00:55:52.232Z,100856.63
2022-12-15T00:58:37.492Z,100857.50
2022-12-15T01:01:27.403Z,100860.97
2022-12-15T01:04:12.748Z,100860.97
2022-12-15T01:06:57.993Z,100859.28
2022-12-15T01:09:43.512Z,100861.84
2022-12-15T01:12:28.350Z,100860.19
2022-12-15T01:15:13.213Z,100864.47
2022-12-15T01:17:57.843Z,100867.06
2022-12-15T01:20:25.323Z,100870.56
2022-12-15T01:22:54.789Z,100878.31
2022-12-15T01:25:24.162Z,100876.63
2022-12-15T01:27:50.910Z,100882.66
2022-12-15T01:30:20.974Z,100886.13
2022-12-15T01:32:47.627Z,100888.75
2022-12-15T01:35:14.589Z,100887.88
2022-12-15T01:37:41.102Z,100886.19
2022-12-15T01:40:30.580Z,100888.78
2022-12-15T01:42:56.934Z,100885.34
2022-12-15T01:45:29.432Z,100887.09
2022-12-15T01:48:12.604Z,100887.97
2022-12-15T01:50:45.140Z,100894.03
2022-12-15T01:53:14.149Z,100892.31
2022-12-15T01:55:44.197Z,100896.66
2022-12-15T01:58:17.268Z,100907.00
2022-12-15T02:00:43.777Z,100905.28
2022-12-15T02:03:10.751Z,100901.84
2022-12-15T02:05:39.807Z,100911.38
2022-12-15T02:08:06.867Z,100910.53
2022-12-15T02:14:05.740Z,100906.25
2022-12-15T02:16:41.099Z,100905.38
2022-12-15T02:19:16.598Z,100905.38
2022-12-15T02:21:54.220Z,100908.84
2022-12-15T02:24:39.805Z,100911.47
2022-12-15T02:27:22.677Z,100912.34
2022-12-15T02:30:30.601Z,100913.22
2022-12-15T02:33:21.753Z,100914.09
2022-12-15T02:36:04.455Z,100903.78
2022-12-15T02:38:41.440Z,100906.38
2022-12-15T02:41:44.046Z,100904.66
2022-12-15T02:44:16.027Z,100908.13
2022-12-15T02:47:12.929Z,100914.16
2022-12-15T02:50:01.375Z,100915.03
2022-12-15T02:53:00.176Z,100911.56
2022-12-15T02:55:35.820Z,100916.75
2022-12-15T02:58:35.610Z,100918.53
2022-12-15T03:01:28.298Z,100921.97
2022-12-15T03:03:56.011Z,100920.25
2022-12-15T03:06:25.076Z,100914.25
2022-12-15T03:08:51.431Z,100927.22
2022-12-15T03:11:17.954Z,100930.69
2022-12-15T03:13:44.380Z,100935.84
2022-12-15T03:16:10.870Z,100934.97
2022-12-15T03:18:37.368Z,100933.25
2022-12-15T03:21:03.915Z,100937.59
2022-12-15T03:23:30.686Z,100934.16
2022-12-15T03:25:57.255Z,100934.16
2022-12-15T03:28:24.438Z,100932.44
2022-12-15T03:30:50.941Z,100932.47
2022-12-15T03:33:18.121Z,100940.22
2022-12-15T03:35:44.550Z,100929.91
2022-12-15T03:38:10.902Z,100936.78
2022-12-15T03:40:37.268Z,100935.06
2022-12-15T03:43:03.700Z,100941.16
2022-12-15T03:45:30.031Z,100946.31
2022-12-15T03:47:58.002Z,100947.19
2022-12-15T03:50:26.399Z,100948.94
2022-12-15T03:52:54.998Z,100939.47
2022-12-15T03:55:22.350Z,100947.22
2022-12-15T03:57:49.350Z,100950.69
2022-12-15T04:00:16.198Z,100944.63
2022-12-15T04:02:43.716Z,100942.91
2022-12-15T04:05:27.904Z,100940.38
2022-12-15T04:07:55.704Z,100942.09
2022-12-15T04:10:26.268Z,100947.25
2022-12-15T04:13:05.407Z,100944.69
2022-12-15T04:15:32.691Z,100949.03
2022-12-15T04:18:01.953Z,100949.03
2022-12-15T04:20:29.045Z,100949.91
2022-12-15T04:22:55.520Z,100949.91
2022-12-15T04:25:42.838Z,100958.53
2022-12-15T04:28:29.785Z,100954.22
2022-12-15T04:31:19.258Z,100951.63
2022-12-15T04:34:08.582Z,100951.63
2022-12-15T04:36:55.256Z,100957.69
2022-12-15T04:39:40.581Z,100959.47
2022-12-15T04:42:25.571Z,100954.28
2022-12-15T04:45:16.999Z,100950.81
2022-12-15T04:48:05.105Z,100956.88
2022-12-15T04:50:49.976Z,100961.16
2022-12-15T04:53:36.778Z,100950.00
2022-12-15T04:56:22.515Z,100959.47
2022-12-15T04:59:07.917Z,100951.72
2022-12-15T05:01:53.305Z,100961.22
2022-12-15T05:04:38.594Z,100956.09
2022-12-15T05:07:23.456Z,100955.22
2022-12-15T05:10:14.607Z,100955.25
2022-12-15T05:13:00.395Z,100954.41
2022-12-15T05:15:45.166Z,100962.16
2022-12-15T05:18:29.885Z,100966.47
2022-12-15T05:21:16.786Z,100962.19
2022-12-15T05:24:02.067Z,100964.78
2022-12-15T05:26:52.286Z,100969.94
2022-12-15T05:29:38.270Z,100969.94
2022-12-15T05:32:04.726Z,100973.41
2022-12-15T05:34:32.986Z,100979.44
2022-12-15T05:37:01.717Z,100969.09
2022-12-15T05:39:29.476Z,100965.66
2022-12-15T05:41:56.663Z,100969.09
2022-12-15T05:44:26.398Z,100969.09
2022-12-15T05:46:53.325Z,100969.94
2022-12-15T05:49:20.650Z,100965.63
2022-12-15T05:51:47.781Z,100974.25
2022-12-15T05:54:17.045Z,100982.00
2022-12-15T05:56:44.265Z,100990.63
2022-12-15T05:59:10.797Z,100989.72
2022-12-15T06:01:37.284Z,100996.59
2022-12-15T06:04:04.830Z,101002.66
2022-12-15T06:06:31.410Z,101007.81
2022-12-15T06:08:58.196Z,101006.06
2022-12-15T06:11:24.555Z,101001.78
2022-12-15T06:13:50.933Z,101004.31
2022-12-15T06:16:19.990Z,101006.00
2022-12-15T06:18:50.455Z,101004.31
2022-12-15T06:21:19.712Z,100999.09
2022-12-15T06:23:46.547Z,101007.69
2022-12-15T06:26:21.578Z,101002.53
2022-12-15T06:28:48.888Z,100999.06
2022-12-15T06:31:17.806Z,101009.38
2022-12-15T06:33:44.349Z,101004.19
2022-12-15T06:36:13.833Z,101017.13
2022-12-15T06:38:43.480Z,101016.25
2022-12-15T06:41:15.008Z,101017.09
2022-12-15T06:43:42.038Z,101012.78
2022-12-15T06:46:09.465Z,101007.63
2022-12-15T06:48:36.026Z,101011.06
2022-12-15T06:51:05.335Z,101017.94
2022-12-15T06:53:32.663Z,101014.44
2022-12-15T06:56:02.073Z,101016.16
2022-12-15T06:58:28.776Z,101025.59
2022-12-15T07:00:56.148Z,101018.69
2022-12-15T07:03:22.856Z,101016.91
2022-12-15T07:06:01.208Z,101011.75
2022-12-15T07:08:32.232Z,101015.19
2022-12-15T07:11:03.521Z,101015.19
2022-12-15T07:13:30.950Z,101012.63
2022-12-15T07:16:02.329Z,101010.84
2022-12-15T07:18:29.694Z,101010.84
2022-12-15T07:20:57.449Z,101025.47
2022-12-15T07:23:39.893Z,101030.63
2022-12-15T07:26:11.739Z,101022.81
2022-12-15T07:28:38.599Z,101034.03
2022-12-15T07:31:11.020Z,101033.13
2022-12-15T07:33:38.440Z,101044.31
2022-12-15T07:36:05.763Z,101039.97
2022-12-15T07:38:32.298Z,101032.22
2022-12-15T07:41:04.112Z,101033.91
2022-12-15T07:43:31.726Z,101043.34
2022-12-15T07:45:59.012Z,101037.34
2022-12-15T07:48:25.616Z,101043.34
2022-12-15T07:51:04.372Z,101039.03
2022-12-15T07:53:35.213Z,101041.63
2022-12-15T07:56:08.903Z,101045.94
2022-12-15T07:58:36.598Z,101044.22
2022-12-15T08:01:07.723Z,101053.66
2022-12-15T08:03:35.724Z,101057.13
2022-12-15T08:06:11.619Z,101058.78
2022-12-15T08:08:38.555Z,101055.31
2022-12-15T08:11:10.796Z,101068.25
2022-12-15T08:14:02.037Z,101071.69
2022-12-15T08:16:25.214Z,101072.53
2022-12-15T08:18:51.733Z,101065.56
2022-12-15T08:21:18.586Z,101060.34
2022-12-15T08:23:45.302Z,101076.69
2022-12-15T08:26:14.614Z,101062.00
2022-12-15T08:28:42.241Z,101062.81
2022-12-15T08:31:20.446Z,101066.22
2022-12-15T08:33:48.087Z,101067.91
2022-12-15T08:36:16.820Z,101066.16
2022-12-15T08:38:44.460Z,101070.50
2022-12-15T08:41:20.247Z,101078.22
2022-12-15T08:43:49.419Z,101088.56
2022-12-15T08:46:17.755Z,101094.50
2022-12-15T08:48:44.842Z,101089.41
2022-12-15T08:51:12.029Z,101090.38
2022-12-15T08:53:38.679Z,101091.22
2022-12-15T08:56:07.194Z,101093.72
2022-12-15T08:58:34.147Z,101095.41
2022-12-15T09:01:02.420Z,101088.47
2022-12-15T09:03:29.618Z,101100.50
2022-12-15T09:05:57.637Z,101096.13
2022-12-15T09:08:24.537Z,101096.09
2022-12-15T09:10:52.630Z,101085.72
2022-12-15T09:13:19.319Z,101094.31
2022-12-15T09:16:08.917Z,101088.25
2022-12-15T09:18:33.790Z,101094.25
2022-12-15T09:21:04.636Z,101089.03
2022-12-15T09:23:31.967Z,101089.84
2022-12-15T09:26:10.673Z,101095.84
2022-12-15T09:28:38.391Z,101098.44
2022-12-15T09:31:13.317Z,101106.16
2022-12-15T09:33:41.694Z,101100.09
2022-12-15T09:36:09.459Z,101109.53
2022-12-15T09:38:40.324Z,101100.84
2022-12-15T09:41:09.894Z,101099.06
2022-12-15T09:43:46.756Z,101108.53
2022-12-15T09:46:39.844Z,101120.59
2022-12-15T09:49:19.407Z,101114.59
2022-12-15T09:52:05.918Z,101115.47
2022-12-15T09:54:37.516Z,101124.88
2022-12-15T09:57:44.808Z,101124.63
2022-12-15T10:00:25.792Z,101128.88
2022-12-15T10:03:07.980Z,101130.41
2022-12-15T10:06:16.040Z,101134.53
2022-12-15T10:08:50.434Z,101135.38
2022-12-15T10:11:56.953Z,101138.91
2022-12-15T10:14:30.357Z,101146.56
2022-12-15T10:17:06.817Z,101143.84
2022-12-15T10:19:42.280Z,101147.31
2022-12-15T10:22:13.877Z,101142.09
2022-12-15T10:28:05.158Z,101135.25
2022-12-15T10:30:32.001Z,101139.53
2022-12-15T10:33:10.757Z,101133.44
2022-12-15T10:35:39.722Z,101134.22
2022-12-15T10:38:13.844Z,101136.72
2022-12-15T10:40:50.276Z,101138.47
2022-12-15T10:43:37.312Z,101139.31
2022-12-15T10:46:07.239Z,101146.25
2022-12-15T10:48:33.718Z,101147.03
2022-12-15T10:51:32.571Z,101144.41
2022-12-15T10:54:01.706Z,101140.91
2022-12-15T10:56:33.789Z,101132.31
2022-12-15T10:59:04.019Z,101135.00
2022-12-15T11:01:33.636Z,101131.53
2022-12-15T11:04:00.599Z,101124.50
2022-12-15T11:06:34.539Z,101123.50
2022-12-15T11:09:10.149Z,101117.44
2022-12-15T11:12:05.941Z,101121.63
2022-12-15T11:14:52.753Z,101118.13
2022-12-15T11:17:22.025Z,101120.84
2022-12-15T11:20:04.865Z,101119.13
2022-12-15T11:22:50.322Z,101124.19
2022-12-15T11:25:29.214Z,101120.69
2022-12-15T11:27:59.029Z,101119.81
2022-12-15T11:30:33.719Z,101117.19
2022-12-15T11:33:01.306Z,101110.94
2022-12-15T11:35:39.032Z,101116.03
2022-12-15T11:38:19.507Z,101114.25
2022-12-15T11:40:45.910Z,101115.84
2022-12-15T11:43:36.562Z,101112.22
2022-12-15T11:46:20.198Z,101110.34
2022-12-15T11:49:01.839Z,101111.94
2022-12-15T11:51:42.563Z,101105.81
2022-12-15T11:54:23.597Z,101116.88
2022-12-15T11:57:10.760Z,101115.97
2022-12-15T12:00:13.884Z,101112.47
2022-12-15T12:02:58.674Z,101115.03
2022-12-15T12:05:46.743Z,101115.00
2022-12-15T12:08:40.120Z,101121.81
2022-12-15T12:11:20.931Z,101124.41
2022-12-15T12:14:12.075Z,101122.66
2022-12-15T12:17:03.569Z,101115.59
2022-12-15T12:19:52.263Z,101105.06
2022-12-15T12:22:28.037Z,101099.88
2022-12-15T12:25:15.594Z,101098.13
2022-12-15T12:28:01.925Z,101104.16
2022-12-15T12:30:38.054Z,101098.00
2022-12-15T12:33:11.831Z,101091.88
2022-12-15T12:35:45.739Z,101095.44
2022-12-15T12:38:13.592Z,101087.59
2022-12-15T12:40:59.653Z,101095.19
2022-12-15T12:43:39.043Z,101084.63
2022-12-15T12:46:14.985Z,101094.16
2022-12-15T12:49:13.780Z,101094.06
2022-12-15T12:51:41.950Z,101080.97
2022-12-15T12:54:39.837Z,101078.31
2022-12-15T12:57:12.018Z,101074.72
2022-12-15T12:59:58.450Z,101073.03
2022-12-15T13:02:25.439Z,101072.97
2022-12-15T13:04:57.949Z,101066.84
2022-12-15T13:07:36.263Z,101060.75
2022-12-15T13:10:17.966Z,101060.75
2022-12-15T13:12:52.303Z,101058.13
2022-12-15T13:15:28.876Z,101061.44
2022-12-15T13:18:04.556Z,101067.41
2022-12-15T13:20:33.235Z,101057.88
2022-12-15T13:23:25.273Z,101057.03
2022-12-15T13:25:57.888Z,101044.91
2022-12-15T13:28:42.585Z,101045.78
2022-12-15T13:31:18.642Z,101050.03
2022-12-15T13:33:50.747Z,101034.34
2022-12-15T13:36:42.223Z,101044.72
2022-12-15T13:39:14.619Z,101036.84
2022-12-15T13:41:54.516Z,101039.44
2022-12-15T13:44:48.873Z,101033.34
2022-12-15T13:47:22.106Z,101041.16
2022-12-15T13:50:01.327Z,101044.53
2022-12-15T13:53:08.713Z,101037.50
2022-12-15T13:55:32.451Z,101040.97
2022-12-15T13:58:05.109Z,101036.63
2022-12-15T14:00:32.765Z,101037.50
2022-12-15T14:03:07.221Z,101036.66
2022-12-15T14:05:33.773Z,101036.66
2022-12-15T14:08:03.409Z,101035.78
2022-12-15T14:10:32.786Z,101034.97
2022-12-15T14:13:15.580Z,101036.72
2022-12-15T14:15:50.801Z,101032.41
2022-12-15T14:18:35.680Z,101032.41
2022-12-15T14:21:06.556Z,101028.16
2022-12-15T14:24:04.021Z,101030.81
2022-12-15T14:26:31.758Z,101025.66
2022-12-15T14:29:05.217Z,101028.38
2022-12-15T14:31:31.894Z,101023.97
2022-12-15T14:34:29.220Z,101016.97
2022-12-15T14:36:59.474Z,101008.38
2022-12-15T14:39:32.708Z,101012.63
2022-12-15T14:42:01.295Z,101013.50
2022-12-15T14:44:50.859Z,101016.09
2022-12-15T14:47:26.756Z,101015.19
2022-12-15T14:49:55.483Z,101015.19
2022-12-15T14:52:35.610Z,101012.50
2022-12-15T14:55:04.640Z,101010.75
2022-12-15T14:57:45.163Z,101015.06
2022-12-15T15:00:48.693Z,101007.19
2022-12-15T15:05:49.924Z,101011.44
2022-12-15T15:08:29.933Z,101006.25
2022-12-15T15:11:01.418Z,101003.66
2022-12-15T15:13:40.707Z,101008.84
2022-12-15T15:16:15.471Z,101005.31
2022-12-15T15:18:43.262Z,101005.38
2022-12-15T15:21:18.173Z,101003.66
2022-12-15T15:24:01.814Z,100998.44
2022-12-15T15:26:30.147Z,101001.84
2022-12-15T15:28:57.028Z,100994.91
2022-12-15T15:31:41.257Z,100990.50
2022-12-15T15:34:08.619Z,100985.25
2022-12-15T15:36:37.816Z,100994.75
2022-12-15T15:39:12.701Z,100995.63
2022-12-15T15:41:39.232Z,100997.34
2022-12-15T15:44:13.744Z,100987.78
2022-12-15T15:46:47.994Z,100997.28
2022-12-15T15:49:18.515Z,100993.84
2022-12-15T15:51:45.318Z,101002.56
2022-12-15T15:54:16.423Z,100999.16
2022-12-15T15:56:42.825Z,101004.31
2022-12-15T15:59:14.956Z,101009.47
2022-12-15T16:01:41.595Z,101007.84
2022-12-15T16:04:08.119Z,101006.03
2022-12-15T16:06:36.018Z,101025.06
2022-12-15T16:09:02.594Z,101017.25
2022-12-15T16:11:30.829Z,101012.06
2022-12-15T16:13:57.713Z,101017.22
2022-12-15T16:16:29.933Z,101018.97
2022-12-15T16:18:56.393Z,101023.34
2022-12-15T16:21:27.012Z,101028.56
2022-12-15T16:23:54.872Z,101012.94
2022-12-15T16:26:27.891Z,101024.16
2022-12-15T16:28:54.364Z,101020.69
2022-12-15T16:31:41.977Z,101016.38
2022-12-15T16:34:08.795Z,101013.78
2022-12-15T16:36:35.383Z,101014.59
2022-12-15T16:39:01.941Z,101014.59
2022-12-15T16:41:28.326Z,101018.09
2022-12-15T16:43:54.787Z,101013.81
2022-12-15T16:46:21.184Z,101014.66
2022-12-15T16:48:47.819Z,101009.47
2022-12-15T16:51:32.455Z,101010.34
2022-12-15T16:53:58.852Z,101019.03
2022-12-15T16:56:25.302Z,101015.56
2022-12-15T16:58:57.476Z,101017.25
2022-12-15T17:01:29.360Z,101019.03
2022-12-15T17:03:56.111Z,101016.50
2022-12-15T17:06:22.623Z,101014.78
2022-12-15T17:08:55.034Z,101013.94
2022-12-15T17:11:23.788Z,101017.38
2022-12-15T17:13:52.342Z,101021.75
2022-12-15T17:16:21.063Z,101016.53
2022-12-15T17:18:48.066Z,101016.53
2022-12-15T17:21:34.156Z,101013.13
2022-12-15T17:24:11.270Z,101015.72
2022-12-15T17:26:37.909Z,101020.13
2022-12-15T17:29:13.130Z,101021.03
2022-12-15T17:31:39.539Z,101021.84
2022-12-15T17:34:25.626Z,101027.97
2022-12-15T17:36:52.540Z,101023.63
2022-12-15T17:39:21.095Z,101021.91
2022-12-15T17:42:04.359Z,101021.91
2022-12-15T17:44:36.738Z,101028.91
2022-12-15T17:47:05.650Z,101028.91
2022-12-15T17:49:36.076Z,101032.41
2022-12-15T17:52:07.699Z,101034.19
2022-12-15T17:54:34.164Z,101032.53
2022-12-15T17:57:00.599Z,101041.19
2022-12-15T17:59:27.104Z,101039.47
2022-12-15T18:01:56.811Z,101035.19
2022-12-15T18:04:23.421Z,101042.97
2022-12-15T18:06:49.894Z,101037.88
2022-12-15T18:09:18.235Z,101042.16
2022-12-15T18:11:46.889Z,101048.25
2022-12-15T18:14:16.067Z,101053.47
2022-12-15T18:16:43.465Z,101052.59
2022-12-15T18:19:09.917Z,101051.75
2022-12-15T18:21:37.135Z,101056.97
2022-12-15T18:24:11.293Z,101057.84
2022-12-15T18:26:38.071Z,101065.63
2022-12-15T18:29:17.843Z,101063.03
2022-12-15T18:31:47.013Z,101061.31
2022-12-15T18:34:16.348Z,101067.41
2022-12-15T18:36:42.971Z,101059.72
2022-12-15T18:39:30.242Z,101068.41
2022-12-15T18:41:57.254Z,101062.31
2022-12-15T18:44:28.835Z,101069.25
2022-12-15T18:46:55.606Z,101067.50
2022-12-15T18:49:23.513Z,101054.56
2022-12-15T18:51:50.405Z,101058.84
2022-12-15T18:54:22.320Z,101064.03
2022-12-15T18:56:49.998Z,101065.81
2022-12-15T18:59:17.754Z,101069.28
2022-12-15T19:01:46.183Z,101065.81
2022-12-15T19:04:13.685Z,101067.56
2022-12-15T19:06:40.949Z,101081.44
2022-12-15T19:09:17.300Z,101072.78
2022-12-15T19:12:06.483Z,101084.88
2022-12-15T19:14:42.617Z,101090.22
2022-12-15T19:17:33.677Z,101098.00
2022-12-15T19:20:20.686Z,101104.88
2022-12-15T19:22:48.530Z,101106.66
2022-12-15T19:25:26.507Z,101104.03
2022-12-15T19:28:00.652Z,101106.69
2022-12-15T19:30:33.202Z,101104.09
2022-12-15T19:33:01.185Z,101106.75
2022-12-15T19:35:28.156Z,101106.75
2022-12-15T19:37:57.254Z,101108.56
2022-12-15T19:40:27.714Z,101101.56
2022-12-15T19:42:55.495Z,101101.56
2022-12-15T19:45:25.248Z,101096.41
2022-12-15T19:47:51.999Z,101093.81
2022-12-15T19:50:28.204Z,101092.97
2022-12-15T19:52:59.234Z,101100.72
2022-12-15T19:55:29.922Z,101105.88
2022-12-15T19:57:56.353Z,101100.66
2022-12-15T20:00:24.781Z,101104.13
2022-12-15T20:02:54.511Z,101108.50
2022-12-15T20:05:25.417Z,101107.63
2022-12-15T20:07:54.593Z,101116.31
2022-12-15T20:10:29.392Z,101110.28
2022-12-15T20:12:58.518Z,101114.63
2022-12-15T20:15:26.285Z,101112.16
2022-12-15T20:17:58.634Z,101112.09
2022-12-15T20:20:27.874Z,101123.38
2022-12-15T20:22:57.586Z,101122.47
2022-12-15T20:25:28.687Z,101125.13
2022-12-15T20:27:56.352Z,101119.94
2022-12-15T20:30:26.607Z,101116.47
2022-12-15T20:32:53.519Z,101113.81
2022-12-15T20:35:21.888Z,101113.06
2022-12-15T20:37:49.522Z,101120.91
2022-12-15T20:40:17.553Z,101125.22
2022-12-15T20:42:43.935Z,101132.97
2022-12-15T20:45:14.643Z,101132.13
2022-12-15T20:47:43.965Z,101139.94
2022-12-15T20:50:40.844Z,101139.94
2022-12-15T20:53:23.775Z,101140.84
2022-12-15T20:55:52.496Z,101144.28
2022-12-15T20:58:19.588Z,101143.47
2022-12-15T21:00:48.392Z,101143.47
2022-12-15T21:03:26.894Z,101140.00
2022-12-15T21:05:56.238Z,101134.78
2022-12-15T21:08:31.106Z,101138.31
2022-12-15T21:11:02.377Z,101139.16
2022-12-15T21:13:32.956Z,101133.13
2022-12-15T21:15:59.658Z,101130.56
2022-12-15T21:19:18.227Z,101121.06
2022-12-15T21:21:20.828Z,101128.84
2022-12-15T21:23:47.643Z,101133.22
2022-12-15T21:26:18.278Z,101131.50
2022-12-15T21:28:44.787Z,101131.50
2022-12-15T21:31:11.172Z,101125.47
2022-12-15T21:33:37.551Z,101127.19
2022-12-15T21:36:04.102Z,101128.03
2022-12-15T21:38:36.504Z,101125.41
2022-12-15T21:41:05.393Z,101126.25
2022-12-15T21:43:35.231Z,101134.06
2022-12-15T21:46:10.879Z,101134.97
2022-12-15T21:48:55.936Z,101146.25
2022-12-15T21:51:22.471Z,101150.56
2022-12-15T21:53:48.919Z,101149.72
2022-12-15T21:56:17.281Z,101141.09
2022-12-15T21:58:44.870Z,101141.09
2022-12-15T22:01:21.380Z,101141.09
2022-12-15T22:03:52.153Z,101141.97
2022-12-15T22:06:21.804Z,101148.09
2022-12-15T22:08:48.970Z,101150.66
2022-12-15T22:11:25.432Z,101148.09
2022-12-15T22:13:55.116Z,101155.09
2022-12-15T22:16:22.204Z,101152.50
2022-12-15T22:18:51.484Z,101158.53
2022-12-15T22:21:18.315Z,101154.28
2022-12-15T22:23:47.834Z,101165.50
2022-12-15T22:26:19.494Z,101155.09
2022-12-15T22:28:46.013Z,101156.00
2022-12-15T22:31:12.476Z,101158.69
2022-12-15T22:33:38.858Z,101159.56
2022-12-15T22:36:05.338Z,101158.84
2022-12-15T22:38:32.002Z,101164.88
2022-12-15T22:40:59.829Z,101166.59
2022-12-15T22:43:36.513Z,101160.53
2022-12-15T22:46:04.353Z,101163.13
2022-12-15T22:48:34.599Z,101162.25
2022-12-15T22:51:01.767Z,101163.97
2022-12-15T22:53:31.681Z,101169.16
2022-12-15T22:55:59.655Z,101167.44
2022-12-15T22:58:36.757Z,101169.16
2022-12-15T23:01:06.526Z,101166.56
2022-12-15T23:03:34.434Z,101163.13
2022-12-15T23:06:02.865Z,101153.56
2022-12-15T23:08:30.867Z,101150.09
2022-12-15T23:11:17.392Z,101153.56
2022-12-15T23:13:44.481Z,101156.19
2022-12-15T23:16:21.392Z,101157.06
2022-12-15T23:18:53.822Z,101153.56
2022-12-15T23:21:22.430Z,101165.72
2022-12-15T23:23:49.367Z,101163.13
2022-12-15T23:26:19.028Z,101162.25
2022-12-15T23:28:45.884Z,101162.28
2022-12-15T23:31:12.543Z,101157.97
2022-12-15T23:33:39.384Z,101161.44
2022-12-15T23:36:06.278Z,101151.94
2022-12-15T23:38:32.863Z,101154.50
2022-12-15T23:40:59.604Z,101170.91
2022-12-15T23:43:28.564Z,101168.31
2022-12-15T23:46:06.691Z,101164.03
2022-12-15T23:48:35.654Z,101168.31
2022-12-15T23:51:13.656Z,101164.03
2022-12-15T23:53:41.400Z,101180.47
2022-12-15T23:56:15.788Z,101174.44
2022-12-15T23:58:43.840Z,101180.50
